Time;durP1;ratioP1;P1;durP2;ratioP2;P2;SDS_P1;SDS_P2;PMS_P1;PMS_P2;Temp;Humidity;BMP_temperature;BMP_pressure;BME280_temperature;BME280_humidity;BME280_pressure;Samples;Min_cycle;Max_cycle;Signal;HPM_P1;HPM_P2
2024/01/06 00:02:14;;;;;;;85.63;34.27;;;;;;;;;;4966173;28;20595;-73
2024/01/06 00:04:40;;;;;;;82.00;35.53;;;;;;;;;;4965990;28;20729;-71
2024/01/06 00:07:05;;;;;;;84.87;34.70;;;;;;;;;;4965099;28;20251;-72
2024/01/06 00:09:30;;;;;;;91.93;35.03;;;;;;;;;;4958479;28;20666;-71
2024/01/06 00:11:56;;;;;;;79.57;35.40;;;;;;;;;;4961652;28;20384;-71
2024/01/06 00:14:21;;;;;;;89.40;35.30;;;;;;;;;;4948585;28;20223;-71
2024/01/06 00:16:46;;;;;;;80.97;34.43;;;;;;;;;;4966280;28;20293;-72
2024/01/06 00:19:12;;;;;;;85.13;34.30;;;;;;;;;;4965683;28;20228;-72
2024/01/06 00:21:37;;;;;;;82.23;33.90;;;;;;;;;;4944036;28;20409;-71
2024/01/06 00:24:02;;;;;;;86.70;34.90;;;;;;;;;;4965833;28;20220;-73
2024/01/06 00:26:28;;;;;;;84.60;35.03;;;;;;;;;;4959096;28;20230;-72
2024/01/06 00:28:53;;;;;;;85.37;36.33;;;;;;;;;;4959306;28;20287;-72
2024/01/06 00:31:19;;;;;;;85.77;35.07;;;;;;;;;;4958395;28;20263;-72
2024/01/06 00:33:44;;;;;;;86.47;36.50;;;;;;;;;;4966001;28;20234;-72
2024/01/06 00:36:10;;;;;;;83.10;35.73;;;;;;;;;;4954908;28;20346;-73
2024/01/06 00:38:35;;;;;;;90.77;37.20;;;;;;;;;;4960978;28;20216;-71
2024/01/06 00:41:01;;;;;;;95.43;37.67;;;;;;;;;;4957114;28;20232;-72
2024/01/06 00:43:26;;;;;;;92.13;38.57;;;;;;;;;;4958033;28;20259;-71
2024/01/06 00:45:51;;;;;;;89.17;37.70;;;;;;;;;;4958371;28;20224;-72
2024/01/06 00:48:17;;;;;;;92.50;38.83;;;;;;;;;;4942173;28;20298;-71
2024/01/06 00:50:42;;;;;;;95.37;40.53;;;;;;;;;;4966011;28;20232;-72
2024/01/06 00:53:07;;;;;;;98.90;41.07;;;;;;;;;;4957343;28;20232;-72
2024/01/06 00:55:33;;;;;;;98.00;40.30;;;;;;;;;;4947914;28;20262;-72
2024/01/06 00:57:58;;;;;;;98.40;40.53;;;;;;;;;;4964625;28;20353;-72
2024/01/06 01:00:24;;;;;;;99.17;40.07;;;;;;;;;;4959155;28;20283;-72
2024/01/06 01:02:49;;;;;;;97.33;39.83;;;;;;;;;;4968101;28;20220;-72
2024/01/06 01:05:17;;;;;;;99.50;40.93;;;;;;;;;;4963988;28;20262;-72
2024/01/06 01:07:42;;;;;;;91.83;39.63;;;;;;;;;;4948775;28;20239;-72
2024/01/06 01:10:09;;;;;;;93.33;39.33;;;;;;;;;;4960403;28;20212;-72
2024/01/06 01:12:34;;;;;;;92.60;38.90;;;;;;;;;;4957158;28;20294;-72
2024/01/06 01:15:00;;;;;;;92.70;39.77;;;;;;;;;;4958902;28;20224;-72
2024/01/06 01:17:25;;;;;;;89.67;38.77;;;;;;;;;;4956658;28;20224;-72
2024/01/06 01:19:50;;;;;;;90.40;38.70;;;;;;;;;;4967402;28;20232;-73
2024/01/06 01:22:16;;;;;;;86.97;38.50;;;;;;;;;;4964741;28;20232;-73
2024/01/06 01:24:42;;;;;;;91.90;38.73;;;;;;;;;;4957774;28;20290;-73
2024/01/06 01:27:07;;;;;;;88.67;38.40;;;;;;;;;;4952950;28;20228;-72
2024/01/06 01:29:32;;;;;;;90.07;38.20;;;;;;;;;;4958540;28;20278;-72
2024/01/06 01:31:57;;;;;;;91.07;37.13;;;;;;;;;;4965250;28;20235;-73
2024/01/06 01:34:23;;;;;;;87.07;37.67;;;;;;;;;;4959281;28;20846;-72
2024/01/06 01:36:48;;;;;;;87.33;37.23;;;;;;;;;;4964932;28;20724;-72
2024/01/06 01:39:13;;;;;;;90.23;38.03;;;;;;;;;;4964445;28;20717;-72
2024/01/06 01:41:39;;;;;;;85.57;38.30;;;;;;;;;;4956197;28;20226;-71
2024/01/06 01:44:05;;;;;;;89.40;37.20;;;;;;;;;;4964419;28;20227;-73
2024/01/06 01:46:30;;;;;;;88.97;36.70;;;;;;;;;;4959589;28;20228;-71
2024/01/06 01:48:55;;;;;;;88.67;36.80;;;;;;;;;;4958330;28;20228;-71
2024/01/06 01:51:21;;;;;;;81.17;36.53;;;;;;;;;;4957338;28;20672;-71
2024/01/06 01:53:46;;;;;;;84.63;36.47;;;;;;;;;;4963866;28;20227;-72
2024/01/06 01:56:12;;;;;;;83.63;35.87;;;;;;;;;;4955528;28;20227;-72
2024/01/06 01:58:37;;;;;;;82.37;35.80;;;;;;;;;;4965081;28;20219;-71
2024/01/06 02:01:02;;;;;;;91.20;36.57;;;;;;;;;;4958003;28;20251;-72
2024/01/06 02:03:29;;;;;;;86.93;36.77;;;;;;;;;;4968207;28;20870;-72
2024/01/06 02:05:54;;;;;;;80.43;36.27;;;;;;;;;;4948753;28;20256;-72
2024/01/06 02:08:19;;;;;;;83.13;36.20;;;;;;;;;;4960667;28;20232;-72
2024/01/06 02:10:45;;;;;;;87.63;36.67;;;;;;;;;;4960692;28;20318;-72
2024/01/06 02:13:10;;;;;;;89.83;36.63;;;;;;;;;;4962882;28;20701;-72
2024/01/06 02:15:36;;;;;;;88.40;35.73;;;;;;;;;;4961661;28;20743;-72
2024/01/06 02:18:01;;;;;;;87.57;35.87;;;;;;;;;;4951180;28;20615;-72
2024/01/06 02:20:27;;;;;;;82.07;35.90;;;;;;;;;;4949726;28;20273;-72
2024/01/06 02:22:52;;;;;;;85.03;35.90;;;;;;;;;;4951009;28;20610;-72
2024/01/06 02:25:17;;;;;;;84.20;36.43;;;;;;;;;;4968266;28;20243;-72
2024/01/06 02:27:45;;;;;;;81.70;35.33;;;;;;;;;;4949835;28;20224;-72
2024/01/06 02:30:11;;;;;;;87.33;35.50;;;;;;;;;;4959863;28;20231;-72
2024/01/06 02:32:36;;;;;;;83.13;36.30;;;;;;;;;;4967687;28;20232;-73
2024/01/06 02:35:01;;;;;;;82.47;34.77;;;;;;;;;;4962067;28;20224;-72
2024/01/06 02:37:26;;;;;;;88.83;35.43;;;;;;;;;;4971720;28;20286;-72
2024/01/06 02:39:53;;;;;;;79.27;33.50;;;;;;;;;;4961281;28;20274;-73
2024/01/06 02:42:18;;;;;;;79.13;34.33;;;;;;;;;;4949362;28;20298;-71
2024/01/06 02:44:43;;;;;;;74.00;33.60;;;;;;;;;;4963275;28;20224;-71
2024/01/06 02:47:08;;;;;;;84.60;34.10;;;;;;;;;;4962294;28;20616;-71
2024/01/06 02:49:34;;;;;;;79.80;32.87;;;;;;;;;;4966476;28;20980;-71
2024/01/06 02:51:59;;;;;;;75.63;32.93;;;;;;;;;;4958486;28;20247;-71
2024/01/06 02:54:24;;;;;;;73.30;32.40;;;;;;;;;;4967627;28;20259;-72
2024/01/06 02:56:50;;;;;;;77.00;31.63;;;;;;;;;;4967381;28;20242;-72
2024/01/06 02:59:15;;;;;;;73.67;31.10;;;;;;;;;;4966692;28;20608;-73
2024/01/06 03:01:41;;;;;;;75.50;33.20;;;;;;;;;;4967030;28;20697;-73
2024/01/06 03:04:06;;;;;;;72.93;31.87;;;;;;;;;;4959119;28;20220;-73
2024/01/06 03:06:31;;;;;;;70.73;31.40;;;;;;;;;;4966692;28;20236;-73
2024/01/06 03:08:56;;;;;;;67.00;30.07;;;;;;;;;;4953213;28;20231;-72
2024/01/06 03:11:22;;;;;;;62.23;29.37;;;;;;;;;;4965351;28;20796;-72
2024/01/06 03:13:47;;;;;;;67.77;29.20;;;;;;;;;;4960951;28;20228;-72
2024/01/06 03:16:13;;;;;;;64.97;28.97;;;;;;;;;;4958573;28;20303;-73
2024/01/06 03:18:38;;;;;;;65.23;27.73;;;;;;;;;;4957461;28;20251;-72
2024/01/06 03:21:03;;;;;;;61.97;27.77;;;;;;;;;;4966150;28;21052;-72
2024/01/06 03:23:29;;;;;;;61.63;27.20;;;;;;;;;;4965776;28;20227;-73
2024/01/06 03:25:54;;;;;;;60.03;26.40;;;;;;;;;;4949130;28;20706;-72
2024/01/06 03:28:19;;;;;;;55.33;25.27;;;;;;;;;;4958443;28;20747;-72
2024/01/06 03:30:45;;;;;;;60.57;26.10;;;;;;;;;;4966534;28;20231;-72
2024/01/06 03:33:12;;;;;;;63.10;26.43;;;;;;;;;;4965442;28;20227;-73
2024/01/06 03:35:37;;;;;;;57.83;26.00;;;;;;;;;;4961710;28;20753;-72
2024/01/06 03:38:02;;;;;;;56.87;25.23;;;;;;;;;;4953495;28;20256;-72
2024/01/06 03:40:28;;;;;;;55.47;24.17;;;;;;;;;;4948708;28;20303;-72
2024/01/06 03:42:53;;;;;;;54.90;24.57;;;;;;;;;;4967154;28;20228;-72
2024/01/06 03:45:19;;;;;;;58.97;24.90;;;;;;;;;;4966157;28;20231;-74
2024/01/06 03:47:44;;;;;;;59.73;25.90;;;;;;;;;;4964341;28;20224;-76
2024/01/06 03:50:09;;;;;;;54.97;25.30;;;;;;;;;;4966954;28;20235;-74
2024/01/06 03:52:36;;;;;;;58.47;25.17;;;;;;;;;;4965473;28;20243;-74
2024/01/06 03:55:02;;;;;;;54.27;23.87;;;;;;;;;;4965039;28;20299;-74
2024/01/06 03:57:27;;;;;;;53.13;23.57;;;;;;;;;;4948603;28;20290;-73
2024/01/06 03:59:53;;;;;;;52.83;23.33;;;;;;;;;;4950872;28;20884;-74
2024/01/06 04:02:18;;;;;;;47.17;21.93;;;;;;;;;;4957902;28;20231;-72
2024/01/06 04:04:43;;;;;;;50.23;21.57;;;;;;;;;;4966464;28;20951;-74
2024/01/06 04:07:09;;;;;;;49.37;23.37;;;;;;;;;;4952428;28;20749;-73
2024/01/06 04:09:34;;;;;;;50.30;22.53;;;;;;;;;;4960277;28;20834;-73
2024/01/06 04:12:00;;;;;;;55.60;23.97;;;;;;;;;;4959605;28;20239;-73
2024/01/06 04:14:26;;;;;;;60.33;24.60;;;;;;;;;;4943211;28;20228;-74
2024/01/06 04:16:52;;;;;;;53.40;24.10;;;;;;;;;;4966382;28;20235;-74
2024/01/06 04:19:18;;;;;;;60.10;25.43;;;;;;;;;;4965982;28;20343;-73
2024/01/06 04:21:43;;;;;;;59.63;25.03;;;;;;;;;;4971089;28;20285;-73
2024/01/06 04:24:08;;;;;;;62.37;27.37;;;;;;;;;;4970643;28;20706;-74
2024/01/06 04:26:34;;;;;;;62.30;27.10;;;;;;;;;;4956050;28;20764;-73
2024/01/06 04:28:59;;;;;;;63.37;28.27;;;;;;;;;;4949264;28;20605;-75
2024/01/06 04:31:25;;;;;;;64.83;27.93;;;;;;;;;;4958512;28;20725;-74
2024/01/06 04:33:50;;;;;;;67.17;28.03;;;;;;;;;;4960046;28;20594;-74
2024/01/06 04:36:15;;;;;;;68.57;28.77;;;;;;;;;;4964744;28;20235;-74
2024/01/06 04:38:40;;;;;;;58.90;27.53;;;;;;;;;;4958997;28;20235;-74
2024/01/06 04:41:06;;;;;;;64.30;28.27;;;;;;;;;;4964822;28;20220;-74
2024/01/06 04:43:31;;;;;;;60.60;27.37;;;;;;;;;;4953517;28;20350;-72
2024/01/06 04:45:57;;;;;;;69.33;29.97;;;;;;;;;;4964647;28;20278;-73
2024/01/06 04:48:23;;;;;;;62.80;29.43;;;;;;;;;;4963630;28;20234;-71
2024/01/06 04:50:48;;;;;;;71.00;30.37;;;;;;;;;;4955509;28;20227;-72
2024/01/06 04:53:14;;;;;;;74.27;30.17;;;;;;;;;;4947446;28;20228;-72
2024/01/06 04:55:39;;;;;;;82.13;34.30;;;;;;;;;;4946675;28;20231;-72
2024/01/06 04:58:04;;;;;;;98.20;40.53;;;;;;;;;;4964328;28;20259;-73
2024/01/06 05:00:30;;;;;;;95.13;40.03;;;;;;;;;;4959674;28;20224;-71
2024/01/06 05:02:55;;;;;;;91.00;39.70;;;;;;;;;;4963310;28;20224;-72
2024/01/06 05:05:20;;;;;;;112.10;46.93;;;;;;;;;;4960174;28;20220;-73
2024/01/06 05:07:46;;;;;;;118.83;47.40;;;;;;;;;;4963792;28;20259;-72
2024/01/06 05:10:11;;;;;;;110.00;46.70;;;;;;;;;;4965191;28;20235;-72
2024/01/06 05:12:36;;;;;;;111.03;47.63;;;;;;;;;;4964669;28;20295;-72
2024/01/06 05:15:02;;;;;;;114.80;47.97;;;;;;;;;;4964033;28;20260;-72
2024/01/06 05:17:27;;;;;;;116.03;48.70;;;;;;;;;;4959235;28;20262;-72
2024/01/06 05:19:53;;;;;;;119.10;48.67;;;;;;;;;;4960767;28;20299;-72
2024/01/06 05:22:18;;;;;;;112.57;47.47;;;;;;;;;;4947830;28;20622;-72
2024/01/06 05:24:44;;;;;;;111.87;47.37;;;;;;;;;;4955637;28;20224;-71
2024/01/06 05:27:09;;;;;;;110.33;47.87;;;;;;;;;;4957522;28;20223;-71
2024/01/06 05:29:35;;;;;;;110.07;47.63;;;;;;;;;;4952614;28;20650;-72
2024/01/06 05:32:01;;;;;;;103.97;46.37;;;;;;;;;;4964075;28;20240;-72
2024/01/06 05:34:27;;;;;;;97.07;44.03;;;;;;;;;;4957955;28;20838;-72
2024/01/06 05:36:53;;;;;;;97.37;43.83;;;;;;;;;;4964417;28;20236;-72
2024/01/06 05:39:18;;;;;;;95.57;42.90;;;;;;;;;;4963810;28;20235;-72
2024/01/06 05:41:43;;;;;;;92.30;41.40;;;;;;;;;;4957464;28;20793;-72
2024/01/06 05:44:09;;;;;;;82.90;36.60;;;;;;;;;;4964945;28;20232;-71
2024/01/06 05:46:34;;;;;;;80.50;35.00;;;;;;;;;;4939611;28;20293;-72
2024/01/06 05:48:59;;;;;;;43.87;20.57;;;;;;;;;;4956085;28;20230;-72
2024/01/06 05:51:25;;;;;;;31.23;15.17;;;;;;;;;;4965080;28;20239;-72
2024/01/06 05:53:50;;;;;;;31.47;15.00;;;;;;;;;;4960694;28;20292;-72
2024/01/06 05:56:24;;;;;;;24.63;9.70;;;;;;;;;;4958978;28;20232;-72
2024/01/06 05:58:49;;;;;;;27.57;12.33;;;;;;;;;;4947792;28;20243;-72
2024/01/06 06:01:14;;;;;;;31.23;12.43;;;;;;;;;;4947600;28;20228;-72
2024/01/06 06:03:40;;;;;;;17.27;8.57;;;;;;;;;;4962729;28;20298;-73
2024/01/06 06:06:06;;;;;;;14.50;7.27;;;;;;;;;;4961001;28;20286;-71
2024/01/06 06:08:31;;;;;;;14.97;6.80;;;;;;;;;;4966033;28;20232;-71
2024/01/06 06:11:01;;;;;;;14.07;6.77;;;;;;;;;;4962923;28;20295;-70
2024/01/06 06:13:29;;;;;;;15.77;6.00;;;;;;;;;;4958072;28;20246;-72
2024/01/06 06:15:55;;;;;;;11.93;5.60;;;;;;;;;;4963043;28;20223;-72
2024/01/06 06:18:20;;;;;;;13.33;5.73;;;;;;;;;;4960625;28;20622;-72
2024/01/06 06:20:46;;;;;;;11.47;5.70;;;;;;;;;;4962667;28;20247;-71
2024/01/06 06:23:11;;;;;;;12.57;5.50;;;;;;;;;;4964810;28;20228;-72
2024/01/06 06:25:38;;;;;;;22.77;10.57;;;;;;;;;;4946715;28;20626;-72
2024/01/06 06:28:03;;;;;;;30.37;14.93;;;;;;;;;;4958391;28;20766;-71
2024/01/06 06:30:28;;;;;;;17.37;8.07;;;;;;;;;;4959142;28;20225;-72
2024/01/06 06:32:54;;;;;;;15.10;7.50;;;;;;;;;;4955482;28;20251;-71
2024/01/06 06:35:19;;;;;;;16.30;7.70;;;;;;;;;;4964583;28;20382;-71
2024/01/06 06:37:44;;;;;;;16.10;7.33;;;;;;;;;;4946622;28;20282;-71
2024/01/06 06:40:10;;;;;;;13.80;7.53;;;;;;;;;;4964835;28;20259;-72
2024/01/06 06:42:35;;;;;;;18.87;7.90;;;;;;;;;;4961963;28;20216;-72
2024/01/06 06:45:01;;;;;;;14.10;7.37;;;;;;;;;;4958527;28;20221;-71
2024/01/06 06:47:26;;;;;;;16.43;7.43;;;;;;;;;;4966387;28;20311;-72
2024/01/06 06:49:51;;;;;;;19.27;8.63;;;;;;;;;;4967677;28;20228;-74
2024/01/06 06:52:16;;;;;;;20.03;8.47;;;;;;;;;;4967568;28;20246;-73
2024/01/06 06:54:42;;;;;;;20.63;8.17;;;;;;;;;;4950254;28;20225;-72
2024/01/06 06:57:07;;;;;;;17.00;8.30;;;;;;;;;;4966346;28;20282;-72
2024/01/06 06:59:32;;;;;;;16.97;7.93;;;;;;;;;;4961867;28;20248;-72
2024/01/06 07:01:58;;;;;;;19.33;7.60;;;;;;;;;;4967788;28;20251;-72
2024/01/06 07:04:24;;;;;;;17.50;7.97;;;;;;;;;;4967719;28;20666;-72
2024/01/06 07:06:49;;;;;;;14.60;7.53;;;;;;;;;;4949447;28;20946;-72
2024/01/06 07:09:15;;;;;;;22.53;9.10;;;;;;;;;;4960165;28;20228;-71
2024/01/06 07:11:40;;;;;;;21.77;9.00;;;;;;;;;;4965402;28;20247;-71
2024/01/06 07:14:05;;;;;;;19.07;10.17;;;;;;;;;;4961922;28;20335;-71
2024/01/06 07:16:31;;;;;;;20.80;9.10;;;;;;;;;;4960170;28;20231;-72
2024/01/06 07:18:56;;;;;;;18.57;9.17;;;;;;;;;;4965957;28;20224;-71
2024/01/06 07:21:23;;;;;;;22.27;8.63;;;;;;;;;;4967406;28;21089;-70
2024/01/06 07:23:48;;;;;;;19.97;8.93;;;;;;;;;;4967229;28;20248;-71
2024/01/06 07:26:13;;;;;;;22.17;9.47;;;;;;;;;;4967260;28;20311;-71
2024/01/06 07:28:39;;;;;;;19.53;9.27;;;;;;;;;;4965714;28;20318;-71
2024/01/06 07:31:04;;;;;;;22.60;9.10;;;;;;;;;;4962508;28;20904;-71
2024/01/06 07:33:29;;;;;;;26.07;10.53;;;;;;;;;;4948558;28;20315;-71
2024/01/06 07:35:55;;;;;;;23.27;10.00;;;;;;;;;;4966887;28;20227;-71
2024/01/06 07:38:20;;;;;;;19.60;9.40;;;;;;;;;;4966032;28;20220;-72
2024/01/06 07:40:45;;;;;;;21.10;8.90;;;;;;;;;;4966144;28;20228;-71
2024/01/06 07:43:11;;;;;;;22.93;9.17;;;;;;;;;;4966447;28;20251;-71
2024/01/06 07:45:36;;;;;;;28.33;11.10;;;;;;;;;;4966456;28;20259;-71
2024/01/06 07:48:02;;;;;;;26.80;8.77;;;;;;;;;;4965833;28;20220;-73
2024/01/06 07:50:27;;;;;;;42.60;21.63;;;;;;;;;;4962308;28;20294;-70
2024/01/06 07:52:53;;;;;;;27.47;12.63;;;;;;;;;;4965417;28;20278;-72
2024/01/06 07:55:18;;;;;;;61.90;33.33;;;;;;;;;;4961251;28;20310;-71
2024/01/06 07:57:44;;;;;;;34.97;17.80;;;;;;;;;;4943596;28;20235;-72
2024/01/06 08:00:09;;;;;;;28.07;11.90;;;;;;;;;;4966827;28;20232;-72
2024/01/06 08:02:35;;;;;;;25.00;10.57;;;;;;;;;;4957903;28;20290;-71
2024/01/06 08:05:00;;;;;;;19.87;10.23;;;;;;;;;;4958218;28;20227;-71
2024/01/06 08:07:25;;;;;;;26.83;9.77;;;;;;;;;;4946435;28;21130;-71
2024/01/06 08:09:51;;;;;;;30.27;9.70;;;;;;;;;;4966236;28;20319;-70
2024/01/06 08:12:16;;;;;;;25.40;9.67;;;;;;;;;;4959955;28;20240;-72
2024/01/06 08:14:41;;;;;;;28.27;10.97;;;;;;;;;;4964311;28;20230;-73
2024/01/06 08:17:07;;;;;;;24.57;11.23;;;;;;;;;;4949024;28;20224;-72
2024/01/06 08:19:33;;;;;;;38.57;15.17;;;;;;;;;;4974611;28;20229;-73
2024/01/06 08:21:58;;;;;;;44.73;18.27;;;;;;;;;;4966451;28;20228;-71
2024/01/06 08:24:24;;;;;;;56.63;25.30;;;;;;;;;;4943487;28;20294;-72
2024/01/06 08:26:50;;;;;;;61.57;29.40;;;;;;;;;;4939793;28;20239;-71
2024/01/06 08:29:16;;;;;;;64.97;31.47;;;;;;;;;;4939827;28;20300;-71
2024/01/06 08:31:41;;;;;;;78.17;35.27;;;;;;;;;;4949511;28;20267;-71
2024/01/06 08:34:07;;;;;;;82.63;38.17;;;;;;;;;;4962454;28;20673;-71
2024/01/06 08:36:33;;;;;;;79.33;38.23;;;;;;;;;;4957478;28;20232;-72
2024/01/06 08:38:58;;;;;;;71.20;35.23;;;;;;;;;;4966084;28;20709;-71
2024/01/06 08:41:23;;;;;;;74.67;34.90;;;;;;;;;;4960230;28;20230;-72
2024/01/06 08:43:49;;;;;;;76.70;33.40;;;;;;;;;;4965192;28;20307;-71
2024/01/06 08:46:14;;;;;;;67.07;30.77;;;;;;;;;;4961644;28;20697;-71
2024/01/06 08:48:40;;;;;;;68.37;31.80;;;;;;;;;;4965847;28;20232;-71
2024/01/06 08:51:05;;;;;;;65.23;30.77;;;;;;;;;;4966889;28;20220;-72
2024/01/06 08:53:31;;;;;;;68.00;30.47;;;;;;;;;;4964711;28;20232;-72
2024/01/06 08:55:56;;;;;;;64.53;28.60;;;;;;;;;;4963094;28;20968;-72
2024/01/06 08:58:22;;;;;;;54.70;25.83;;;;;;;;;;4965628;28;20224;-72
2024/01/06 09:00:47;;;;;;;52.20;25.07;;;;;;;;;;4962665;28;20224;-71
2024/01/06 09:03:12;;;;;;;50.37;23.93;;;;;;;;;;4965028;28;20324;-72
2024/01/06 09:05:38;;;;;;;48.03;23.37;;;;;;;;;;4957638;28;20306;-71
2024/01/06 09:08:04;;;;;;;41.37;19.83;;;;;;;;;;4961272;28;20232;-71
2024/01/06 09:10:29;;;;;;;42.10;19.97;;;;;;;;;;4963951;28;20298;-71
2024/01/06 09:12:55;;;;;;;46.73;20.57;;;;;;;;;;4963667;28;20232;-71
2024/01/06 09:15:20;;;;;;;46.37;21.03;;;;;;;;;;4965096;28;20228;-72
2024/01/06 09:17:45;;;;;;;40.83;20.10;;;;;;;;;;4950514;28;20334;-71
2024/01/06 09:20:11;;;;;;;41.93;19.07;;;;;;;;;;4964392;28;20224;-71
2024/01/06 09:22:36;;;;;;;37.50;17.53;;;;;;;;;;4963820;28;20247;-72
2024/01/06 09:25:02;;;;;;;37.23;18.20;;;;;;;;;;4956886;28;20235;-72
2024/01/06 09:27:27;;;;;;;41.27;17.90;;;;;;;;;;4947758;28;20235;-71
2024/01/06 09:29:52;;;;;;;39.73;17.63;;;;;;;;;;4959124;28;20243;-72
2024/01/06 09:32:18;;;;;;;42.13;18.67;;;;;;;;;;4951352;28;20681;-73
2024/01/06 09:34:43;;;;;;;37.70;18.00;;;;;;;;;;4963211;28;20299;-73
2024/01/06 09:37:08;;;;;;;40.40;18.33;;;;;;;;;;4965377;28;20726;-73
2024/01/06 09:39:34;;;;;;;41.13;18.03;;;;;;;;;;4963394;28;20228;-73
2024/01/06 09:41:59;;;;;;;39.30;17.43;;;;;;;;;;4964199;28;20228;-72
2024/01/06 09:44:25;;;;;;;37.70;17.27;;;;;;;;;;4958316;28;20224;-73
2024/01/06 09:46:50;;;;;;;45.80;20.30;;;;;;;;;;4958426;28;20228;-74
2024/01/06 09:49:17;;;;;;;45.83;19.10;;;;;;;;;;4947471;28;20303;-74
2024/01/06 09:51:43;;;;;;;43.07;20.07;;;;;;;;;;4962970;28;20247;-72
2024/01/06 09:54:09;;;;;;;43.47;20.07;;;;;;;;;;4959575;28;20230;-73
2024/01/06 09:56:34;;;;;;;52.93;26.03;;;;;;;;;;4956782;28;20238;-72
2024/01/06 09:59:00;;;;;;;38.77;19.20;;;;;;;;;;4949737;28;20764;-73
2024/01/06 10:01:25;;;;;;;32.63;16.07;;;;;;;;;;4964414;28;20299;-71
2024/01/06 10:03:51;;;;;;;34.40;16.27;;;;;;;;;;4962672;28;20228;-71
2024/01/06 10:06:16;;;;;;;38.63;17.13;;;;;;;;;;4957876;28;20623;-72
2024/01/06 10:08:43;;;;;;;40.43;17.93;;;;;;;;;;4955321;28;20232;-72
2024/01/06 10:11:09;;;;;;;41.40;19.80;;;;;;;;;;4946075;28;20310;-72
2024/01/06 10:13:34;;;;;;;41.23;19.07;;;;;;;;;;4939745;28;20231;-71
2024/01/06 10:16:00;;;;;;;43.77;19.00;;;;;;;;;;4961068;28;20228;-71
2024/01/06 10:18:27;;;;;;;119.20;56.13;;;;;;;;;;4964196;28;20228;-72
2024/01/06 10:20:53;;;;;;;38.27;16.80;;;;;;;;;;4959262;28;20231;-72
2024/01/06 10:23:18;;;;;;;61.17;30.90;;;;;;;;;;4967116;28;20228;-72
2024/01/06 10:25:44;;;;;;;32.67;16.50;;;;;;;;;;4970671;28;20622;-72
2024/01/06 10:28:15;;;;;;;32.23;15.60;;;;;;;;;;4958564;28;20235;-72
2024/01/06 10:30:40;;;;;;;39.03;19.67;;;;;;;;;;4967425;28;20307;-72
2024/01/06 10:33:10;;;;;;;33.97;15.27;;;;;;;;;;4960605;28;20872;-72
2024/01/06 10:35:36;;;;;;;36.20;19.73;;;;;;;;;;4967679;28;21335;-72
2024/01/06 10:38:01;;;;;;;29.97;14.37;;;;;;;;;;4955145;28;20236;-71
2024/01/06 10:40:27;;;;;;;36.17;15.90;;;;;;;;;;4947381;28;20581;-71
2024/01/06 10:42:52;;;;;;;28.93;14.73;;;;;;;;;;4954346;28;20228;-71
2024/01/06 10:45:18;;;;;;;35.00;15.70;;;;;;;;;;4959291;28;20247;-71
2024/01/06 10:47:43;;;;;;;34.17;16.70;;;;;;;;;;4949889;28;20887;-71
2024/01/06 10:50:09;;;;;;;32.60;15.27;;;;;;;;;;4948868;28;20235;-72
2024/01/06 10:52:37;;;;;;;31.80;15.50;;;;;;;;;;4958308;28;20244;-72
2024/01/06 10:55:02;;;;;;;48.67;25.60;;;;;;;;;;4964658;28;20225;-71
2024/01/06 10:57:31;;;;;;;39.57;19.00;;;;;;;;;;4954690;28;20232;-72
2024/01/06 10:59:56;;;;;;;40.80;19.23;;;;;;;;;;4950257;28;20231;-71
2024/01/06 11:02:23;;;;;;;31.80;15.20;;;;;;;;;;4955306;28;20236;-71
2024/01/06 11:04:50;;;;;;;32.00;16.07;;;;;;;;;;4967185;28;20232;-71
2024/01/06 11:07:16;;;;;;;33.73;16.30;;;;;;;;;;4950983;28;20240;-71
2024/01/06 11:09:44;;;;;;;38.93;20.87;;;;;;;;;;4965330;28;20232;-71
2024/01/06 11:12:09;;;;;;;53.67;28.20;;;;;;;;;;4957419;28;21030;-72
2024/01/06 11:14:38;;;;;;;73.50;40.03;;;;;;;;;;4959118;28;20221;-71
2024/01/06 11:17:03;;;;;;;42.50;19.90;;;;;;;;;;4950004;28;20228;-73
2024/01/06 11:19:35;;;;;;;46.10;22.13;;;;;;;;;;4962162;28;20226;-72
2024/01/06 11:22:19;;;;;;;34.80;17.57;;;;;;;;;;4955307;28;20236;-71
2024/01/06 11:24:49;;;;;;;37.30;17.37;;;;;;;;;;4964296;28;20228;-71
2024/01/06 11:27:18;;;;;;;36.13;19.23;;;;;;;;;;4961416;28;20228;-70
2024/01/06 11:29:45;;;;;;;42.03;19.53;;;;;;;;;;4949942;28;20295;-71
2024/01/06 11:32:33;;;;;;;32.80;18.50;;;;;;;;;;4965319;28;20255;-71
2024/01/06 11:35:04;;;;;;;33.43;15.10;;;;;;;;;;4954235;28;20229;-70
2024/01/06 11:37:41;;;;;;;34.33;14.23;;;;;;;;;;4957961;28;20238;-71
2024/01/06 11:40:12;;;;;;;30.13;13.87;;;;;;;;;;4966313;28;20254;-72
2024/01/06 11:42:37;;;;;;;26.13;11.03;;;;;;;;;;4966119;28;20275;-71
2024/01/06 11:45:05;;;;;;;36.63;19.10;;;;;;;;;;4968755;28;20302;-72
2024/01/06 11:47:30;;;;;;;39.50;18.87;;;;;;;;;;4966512;28;20342;-73
2024/01/06 11:49:56;;;;;;;29.97;15.30;;;;;;;;;;4950686;28;21032;-72
2024/01/06 11:52:21;;;;;;;64.10;31.27;;;;;;;;;;4949348;28;20302;-73
2024/01/06 11:54:47;;;;;;;51.80;27.33;;;;;;;;;;4958313;28;20681;-72
2024/01/06 11:57:12;;;;;;;36.20;17.77;;;;;;;;;;4948973;28;20228;-72
2024/01/06 11:59:37;;;;;;;33.97;16.13;;;;;;;;;;4961914;28;20678;-72
2024/01/06 12:02:03;;;;;;;35.63;17.27;;;;;;;;;;4947994;28;20229;-71
2024/01/06 12:04:29;;;;;;;39.63;17.67;;;;;;;;;;4966666;28;20227;-71
2024/01/06 12:07:04;;;;;;;36.40;16.80;;;;;;;;;;4958833;28;20860;-71
2024/01/06 12:09:29;;;;;;;41.23;18.93;;;;;;;;;;4979547;28;20247;-71
2024/01/06 12:12:01;;;;;;;54.37;28.00;;;;;;;;;;4958050;28;20236;-70
2024/01/06 12:14:27;;;;;;;49.60;24.33;;;;;;;;;;4964345;28;20216;-71
2024/01/06 12:16:53;;;;;;;36.63;16.77;;;;;;;;;;4965363;28;20236;-72
2024/01/06 12:19:18;;;;;;;33.67;16.53;;;;;;;;;;4958676;28;20227;-73
2024/01/06 12:21:44;;;;;;;34.13;15.00;;;;;;;;;;4947049;28;20290;-72
2024/01/06 12:24:13;;;;;;;29.20;12.50;;;;;;;;;;4958966;28;20235;-72
2024/01/06 12:26:40;;;;;;;27.17;12.10;;;;;;;;;;4959980;28;20323;-71
2024/01/06 12:29:06;;;;;;;23.83;12.00;;;;;;;;;;4966337;28;20263;-72
2024/01/06 12:31:31;;;;;;;26.23;12.17;;;;;;;;;;4957570;28;20240;-72
2024/01/06 12:33:56;;;;;;;45.40;21.63;;;;;;;;;;4965849;28;20220;-72
2024/01/06 12:36:21;;;;;;;30.17;13.73;;;;;;;;;;4958029;28;20241;-72
2024/01/06 12:38:47;;;;;;;53.77;29.10;;;;;;;;;;4963513;28;20295;-72
2024/01/06 12:41:12;;;;;;;33.00;18.50;;;;;;;;;;4964856;28;20286;-73
2024/01/06 12:43:38;;;;;;;24.03;11.67;;;;;;;;;;4949458;28;20231;-72
2024/01/06 12:46:03;;;;;;;22.20;9.43;;;;;;;;;;4958208;28;20287;-73
2024/01/06 12:48:29;;;;;;;19.13;9.37;;;;;;;;;;4965501;28;20804;-73
2024/01/06 12:50:54;;;;;;;19.20;9.40;;;;;;;;;;4947219;28;20224;-74
2024/01/06 12:53:19;;;;;;;20.23;8.60;;;;;;;;;;4965599;28;20243;-72
2024/01/06 12:55:44;;;;;;;27.03;12.10;;;;;;;;;;4948593;28;20236;-72
2024/01/06 12:58:11;;;;;;;27.37;14.03;;;;;;;;;;4962964;28;20773;-73
2024/01/06 13:00:36;;;;;;;43.57;23.53;;;;;;;;;;4950277;28;20224;-73
2024/01/06 13:03:01;;;;;;;24.63;14.20;;;;;;;;;;4963250;28;20224;-71
2024/01/06 13:05:27;;;;;;;21.50;9.70;;;;;;;;;;4957973;28;20250;-72
2024/01/06 13:07:52;;;;;;;19.27;9.07;;;;;;;;;;4964388;28;20709;-72
2024/01/06 13:10:18;;;;;;;19.67;8.93;;;;;;;;;;4964914;28;21045;-72
2024/01/06 13:12:43;;;;;;;21.13;8.50;;;;;;;;;;4947786;28;20926;-71
2024/01/06 13:15:12;;;;;;;18.23;8.27;;;;;;;;;;4956966;28;20298;-71
2024/01/06 13:17:37;;;;;;;20.80;8.70;;;;;;;;;;4946615;28;20243;-72
2024/01/06 13:20:03;;;;;;;21.53;9.10;;;;;;;;;;4957605;28;20223;-72
2024/01/06 13:22:28;;;;;;;20.83;9.13;;;;;;;;;;4947377;28;20776;-72
2024/01/06 13:24:54;;;;;;;19.90;7.73;;;;;;;;;;4964734;28;20223;-71
2024/01/06 13:27:19;;;;;;;17.10;7.87;;;;;;;;;;4963587;28;20588;-73
2024/01/06 13:29:44;;;;;;;18.07;8.03;;;;;;;;;;4963878;28;20230;-73
2024/01/06 13:32:13;;;;;;;18.57;9.83;;;;;;;;;;4965137;28;20250;-73
2024/01/06 13:34:39;;;;;;;20.00;9.43;;;;;;;;;;4964600;28;20224;-71
2024/01/06 13:37:05;;;;;;;17.93;7.80;;;;;;;;;;4965207;28;20235;-71
2024/01/06 13:39:31;;;;;;;16.63;8.17;;;;;;;;;;4963989;28;20314;-74
2024/01/06 13:41:56;;;;;;;17.97;8.70;;;;;;;;;;4958847;28;20315;-72
2024/01/06 13:44:22;;;;;;;17.23;8.10;;;;;;;;;;4960412;28;20224;-73
2024/01/06 13:46:50;;;;;;;16.00;7.50;;;;;;;;;;4963843;28;20709;-72
2024/01/06 13:49:16;;;;;;;17.57;7.30;;;;;;;;;;4964468;28;20890;-73
2024/01/06 13:51:41;;;;;;;15.30;7.20;;;;;;;;;;4950031;28;20232;-71
2024/01/06 13:54:06;;;;;;;18.33;7.60;;;;;;;;;;4960061;28;20227;-71
2024/01/06 13:56:32;;;;;;;12.93;6.67;;;;;;;;;;4967828;28;20231;-71
2024/01/06 13:58:57;;;;;;;14.90;7.07;;;;;;;;;;4960394;28;20864;-72
2024/01/06 14:01:23;;;;;;;16.53;7.20;;;;;;;;;;4962324;28;20366;-71
2024/01/06 14:03:49;;;;;;;17.60;7.40;;;;;;;;;;4962066;28;20698;-72
2024/01/06 14:06:14;;;;;;;13.57;7.03;;;;;;;;;;4968603;28;20243;-71
2024/01/06 14:08:41;;;;;;;18.57;8.17;;;;;;;;;;4961495;28;20368;-72
2024/01/06 14:11:06;;;;;;;16.40;8.10;;;;;;;;;;4966506;28;20220;-72